Time;durP1;ratioP1;P1;durP2;ratioP2;P2;SDS_P1;SDS_P2;PMS_P1;PMS_P2;Temp;Humidity;BMP_temperature;BMP_pressure;BME280_temperature;BME280_humidity;BME280_pressure;Samples;Min_cycle;Max_cycle;Signal;HPM_P1;HPM_P2
2021/10/17 00:10:12;613811.00;2.05;1058.07;0.00;0.00;0.62;;;;;16.60;1.00;;;;;;2277519;60;1255;-87
2021/10/17 00:12:40;313981.00;1.05;541.95;0.00;0.00;0.62;;;;;16.30;1.00;;;;;;2276116;60;1022;-87
2021/10/17 00:15:09;416799.00;1.39;718.69;0.00;0.00;0.62;;;;;15.80;1.00;;;;;;2276096;60;1124;-87
2021/10/17 00:17:37;408751.00;1.36;704.85;0.00;0.00;0.62;;;;;15.90;1.00;;;;;;2276058;60;1385;-89
2021/10/17 00:20:05;366455.00;1.22;632.14;0.00;0.00;0.62;;;;;16.20;1.00;;;;;;2276044;60;1656;-87
2021/10/17 00:22:32;427609.00;1.43;737.27;0.00;0.00;0.62;;;;;15.90;1.00;;;;;;2275944;60;2002;-87
2021/10/17 00:24:59;251106.00;0.84;433.85;0.00;0.00;0.62;;;;;15.00;1.00;;;;;;2275985;60;1039;-87
2021/10/17 00:27:28;399066.00;1.33;688.20;0.00;0.00;0.62;;;;;15.40;1.00;;;;;;2276098;60;1150;-87
2021/10/17 00:29:55;469785.00;1.57;809.82;81618.00;0.27;141.83;;;;;15.90;1.00;;;;;;2276072;60;1282;-87
2021/10/17 00:32:21;245858.00;0.82;424.83;0.00;0.00;0.62;;;;;16.20;1.00;;;;;;2276016;60;1138;-87
2021/10/17 00:34:48;251675.00;0.84;434.83;0.00;0.00;0.62;;;;;16.30;1.00;;;;;;2276104;60;1018;-87
2021/10/17 00:37:17;117233936.00;390.78;65265996.00;0.00;0.00;0.62;;;;;16.40;1.00;;;;;;2276032;60;1138;-88
2021/10/17 00:39:44;447684.00;1.49;771.80;84206.00;0.28;146.30;;;;;16.00;1.00;;;;;;2275940;60;1400;-88
2021/10/17 00:42:12;418648.00;1.40;721.87;0.00;0.00;0.62;;;;;15.30;1.00;;;;;;2275973;60;2013;-88
2021/10/17 00:44:41;313363.00;1.04;540.89;0.00;0.00;0.62;;;;;15.30;1.00;;;;;;2276013;60;1006;-87
2021/10/17 00:47:08;624271.00;2.08;1076.15;0.00;0.00;0.62;;;;;15.40;1.00;;;;;;2275960;60;1705;-88
2021/10/17 00:49:36;288721.00;0.96;498.53;0.00;0.00;0.62;;;;;14.90;1.00;;;;;;2275900;60;1720;-88
2021/10/17 00:52:04;231245.00;0.77;399.69;0.00;0.00;0.62;;;;;15.30;1.00;;;;;;2276540;60;953;-88
2021/10/17 00:54:31;430671.00;1.44;742.54;9553.00;0.03;17.17;;;;;15.80;1.00;;;;;;2276735;60;1598;-87
2021/10/17 00:56:58;588152.00;1.96;1013.77;79392.00;0.26;137.99;;;;;16.00;1.00;;;;;;2263936;61;1019;-88
2021/10/17 00:59:25;234282.00;0.78;404.92;0.00;0.00;0.62;;;;;16.30;1.00;;;;;;2264007;61;1298;-87
2021/10/17 01:01:58;237202.00;0.79;409.94;0.00;0.00;0.62;;;;;16.60;1.00;;;;;;2264030;61;1920;-87
2021/10/17 01:04:27;699184.00;2.33;1205.82;0.00;0.00;0.62;;;;;16.60;1.00;;;;;;2263978;61;1607;-87
2021/10/17 01:06:54;637303.00;2.12;1098.68;92493.00;0.31;160.61;;;;;16.30;1.00;;;;;;2263929;61;1698;-88
2021/10/17 01:09:21;281345.00;0.94;485.85;0.00;0.00;0.62;;;;;16.30;1.00;;;;;;2260898;61;1581;-87
2021/10/17 01:11:52;362378.00;1.21;625.14;0.00;0.00;0.62;;;;;16.30;1.00;;;;;;2259866;61;1686;-87
2021/10/17 01:14:21;676836.00;2.26;1167.09;0.00;0.00;0.62;;;;;16.40;1.00;;;;;;2262509;61;1623;-88
2021/10/17 01:17:09;544805.00;1.82;939.00;68667.00;0.23;119.46;;;;;16.10;1.00;;;;;;2272496;61;1605;-88
2021/10/17 01:19:38;301247.00;1.00;520.06;0.00;0.00;0.62;;;;;16.10;1.00;;;;;;2272511;61;1573;-87
2021/10/17 01:22:07;497495.00;1.66;857.51;0.00;0.00;0.62;;;;;16.30;1.00;;;;;;2272555;61;1919;-87
2021/10/17 01:24:40;634928.00;2.12;1094.57;0.00;0.00;0.62;;;;;16.10;1.00;;;;;;2272525;61;992;-88
2021/10/17 01:27:18;640244.00;2.13;1103.76;75353.00;0.25;131.01;;;;;15.90;1.00;;;;;;2272524;61;1222;-88
2021/10/17 01:29:51;276354.00;0.92;477.27;0.00;0.00;0.62;;;;;15.70;1.00;;;;;;2272470;61;1664;-88
2021/10/17 01:32:34;386032.00;1.29;665.79;0.00;0.00;0.62;;;;;16.00;1.00;;;;;;2272481;61;1174;-87
2021/10/17 01:35:02;464135.00;1.55;800.10;0.00;0.00;0.62;;;;;16.10;1.00;;;;;;2272482;61;1590;-87
2021/10/17 01:37:30;636242.00;2.12;1096.84;0.00;0.00;0.62;;;;;16.00;1.00;;;;;;2272468;61;1028;-88
2021/10/17 01:40:10;;;;;;;;;;;;;;;;;;;;;
2021/10/17 01:42:48;620580.00;2.07;1069.77;0.00;0.00;0.62;;;;;15.60;1.00;;;;;;2262035;61;1991;-88
2021/10/17 01:45:23;742902.00;2.48;1281.72;0.00;0.00;0.62;;;;;14.90;1.00;;;;;;2272467;61;1538;-89
2021/10/17 01:47:52;652850.00;2.18;1125.57;60261.00;0.20;104.93;;;;;15.20;1.00;;;;;;2272354;61;1587;-88
2021/10/17 01:50:21;556970.00;1.86;959.98;28985.00;0.10;50.83;;;;;15.40;1.00;;;;;;2272366;61;1751;-88
2021/10/17 01:52:50;358435.00;1.19;618.36;0.00;0.00;0.62;;;;;15.80;1.00;;;;;;2272371;61;1687;-87
2021/10/17 01:55:22;346059.00;1.15;597.09;0.00;0.00;0.62;;;;;15.80;1.00;;;;;;2272438;61;1026;-87
2021/10/17 01:57:49;566786.00;1.89;976.90;0.00;0.00;0.62;;;;;16.00;1.00;;;;;;2272365;61;1724;-87
2021/10/17 02:00:17;336320.00;1.12;580.35;0.00;0.00;0.62;;;;;16.40;1.00;;;;;;2272413;61;1252;-88
2021/10/17 02:02:46;607893.00;2.03;1047.85;39609.00;0.13;69.21;;;;;16.20;1.00;;;;;;2272230;61;1995;-88
2021/10/17 02:05:13;625702.00;2.09;1078.62;0.00;0.00;0.62;;;;;16.10;1.00;;;;;;2272401;61;963;-88
2021/10/17 02:07:43;1092971.00;3.64;1897.86;109864.00;0.37;190.60;;;;;16.00;1.00;;;;;;2272337;61;1601;-87
2021/10/17 02:10:13;412959.00;1.38;712.08;0.00;0.00;0.62;;;;;15.70;1.00;;;;;;2276146;61;1065;-87
2021/10/17 02:12:45;210173.00;0.70;363.43;0.00;0.00;0.62;;;;;16.00;1.00;;;;;;2276345;61;1644;-87
2021/10/17 02:15:20;594796.00;1.98;1025.24;0.00;0.00;0.62;;;;;16.10;1.00;;;;;;2276407;61;988;-87
2021/10/17 02:17:51;740048.00;2.47;1276.76;73442.00;0.24;127.71;;;;;16.20;1.00;;;;;;2276342;61;1653;-87
2021/10/17 02:20:19;634668.00;2.12;1094.12;31910.00;0.11;55.89;;;;;16.30;1.00;;;;;;2276294;61;1548;-87
2021/10/17 02:22:46;545149.00;1.82;939.60;0.00;0.00;0.62;;;;;16.40;1.00;;;;;;2276245;61;2006;-88
2021/10/17 02:25:19;803260.00;2.68;1386.81;0.00;0.00;0.62;;;;;16.30;1.00;;;;;;2276304;61;1646;-88
2021/10/17 02:27:46;1046459.00;3.49;1814.93;176667.00;0.59;305.75;;;;;16.10;1.00;;;;;;2276312;61;1475;-86
2021/10/17 02:30:13;605654.00;2.02;1043.98;0.00;0.00;0.62;;;;;15.80;1.00;;;;;;2276408;61;1001;-88
2021/10/17 02:32:40;373646.00;1.25;644.50;0.00;0.00;0.62;;;;;15.70;1.00;;;;;;2276311;61;1722;-87
2021/10/17 02:35:07;347407.00;1.16;599.40;0.00;0.00;0.62;;;;;15.50;1.00;;;;;;2276306;61;1684;-88
2021/10/17 02:37:35;626792.00;2.09;1080.50;121357.00;0.40;210.42;;;;;15.50;1.00;;;;;;2276291;61;1078;-88
2021/10/17 02:40:06;641959.00;2.14;1106.73;0.00;0.00;0.62;;;;;15.70;1.00;;;;;;2276365;61;1197;-87
2021/10/17 02:42:35;365183.00;1.22;629.96;0.00;0.00;0.62;;;;;15.80;1.00;;;;;;2276278;61;2006;-88
2021/10/17 02:45:02;502159.00;1.67;865.54;0.00;0.00;0.62;;;;;15.30;1.00;;;;;;2276311;61;1024;-87
2021/10/17 02:47:32;377944.00;1.26;651.89;0.00;0.00;0.62;;;;;15.70;1.00;;;;;;2276280;61;1134;-88
2021/10/17 02:50:04;623199.00;2.08;1074.29;0.00;0.00;0.62;;;;;15.80;1.00;;;;;;2276293;61;1369;-87
2021/10/17 02:52:31;705464.00;2.35;1216.72;0.00;0.00;0.62;;;;;16.00;1.00;;;;;;2276286;61;1695;-88
2021/10/17 02:54:58;543393.00;1.81;936.57;0.00;0.00;0.62;;;;;16.30;1.00;;;;;;2276297;61;1010;-88
2021/10/17 02:57:28;586178.00;1.95;1010.36;0.00;0.00;0.62;;;;;16.10;1.00;;;;;;2276190;61;1716;-87
2021/10/17 02:59:58;747383.00;2.49;1289.51;0.00;0.00;0.62;;;;;15.40;1.00;;;;;;2276295;61;1408;-86
2021/10/17 03:02:32;695779.00;2.32;1199.92;23986.00;0.08;42.17;;;;;15.60;1.00;;;;;;2276157;61;1927;-88
2021/10/17 03:04:59;562596.00;1.88;969.68;86252.00;0.29;149.84;;;;;15.30;1.00;;;;;;2276240;61;1728;-88
2021/10/17 03:07:26;403419.00;1.34;695.68;48904.00;0.16;85.29;;;;;15.30;1.00;;;;;;2276280;61;1103;-88
2021/10/17 03:09:58;473367.00;1.58;815.98;0.00;0.00;0.62;;;;;14.70;1.00;;;;;;2276058;61;1598;-88
2021/10/17 03:12:27;515501.00;1.72;888.52;0.00;0.00;0.62;;;;;15.00;1.00;;;;;;2276232;61;1594;-88
2021/10/17 03:15:10;;;;;;;;;;;;;;;;;;;;;
2021/10/17 03:17:54;411417.00;1.37;709.43;0.00;0.00;0.62;;;;;15.40;1.00;;;;;;2272484;61;1692;-88
2021/10/17 03:20:29;523377.00;1.74;902.08;12319.00;0.04;21.97;;;;;14.60;1.00;;;;;;2276176;61;1622;-88
2021/10/17 03:23:31;;;;;;;;;;;;;;;;;;;;;
2021/10/17 03:26:10;850926.00;2.84;1470.09;0.00;0.00;0.62;;;;;15.00;1.00;;;;;;2256233;61;1467;-87
2021/10/17 03:28:39;519377.00;1.73;895.19;0.00;0.00;0.62;;;;;15.20;1.00;;;;;;2259439;61;1539;-88
2021/10/17 03:31:22;276517.00;0.92;477.55;0.00;0.00;0.62;;;;;15.40;1.00;;;;;;2259512;61;1138;-88
2021/10/17 03:34:07;443889.00;1.48;765.27;44624.00;0.15;77.89;;;;;15.70;1.00;;;;;;2259511;61;1717;-88
2021/10/17 03:39:59;421403.00;1.40;726.60;0.00;0.00;0.62;;;;;15.90;1.00;;;;;;2250735;61;1304;-87
2021/10/17 03:42:37;659456.00;2.20;1137.00;0.00;0.00;0.62;;;;;16.00;1.00;;;;;;2259434;61;1911;-88
2021/10/17 03:45:13;639872.00;2.13;1103.12;93905.00;0.31;163.05;;;;;15.90;1.00;;;;;;2259472;61;1200;-89
2021/10/17 03:47:46;441992.00;1.47;762.01;0.00;0.00;0.62;;;;;16.10;1.00;;;;;;2259339;61;1732;-88
2021/10/17 03:50:14;493463.00;1.64;850.57;97991.00;0.33;170.10;;;;;15.80;1.00;;;;;;2276162;61;1059;-89
2021/10/17 03:52:47;686028.00;2.29;1183.02;0.00;0.00;0.62;;;;;15.90;1.00;;;;;;2276105;61;1111;-87
2021/10/17 03:55:17;749670.00;2.50;1293.48;86169.00;0.29;149.69;;;;;16.20;1.00;;;;;;2276108;61;1584;-88
2021/10/17 03:57:53;370095.00;1.23;638.40;54066.00;0.18;94.22;;;;;16.50;1.00;;;;;;2276035;61;1684;-87
2021/10/17 04:00:24;487006.00;1.62;839.46;40919.00;0.14;71.48;;;;;16.80;1.00;;;;;;2276065;61;1849;-87
2021/10/17 04:03:07;468209.00;1.56;807.11;15994.00;0.05;28.33;;;;;16.60;1.00;;;;;;2275544;61;2013;-89
2021/10/17 04:05:44;641159.00;2.14;1105.34;78225.00;0.26;135.97;;;;;16.80;1.00;;;;;;2276062;61;918;-86
2021/10/17 04:08:25;517055.00;1.72;891.19;0.00;0.00;0.62;;;;;17.00;1.00;;;;;;2275967;61;1371;-85
2021/10/17 04:11:00;215882.00;0.72;373.26;0.00;0.00;0.62;;;;;17.10;1.00;;;;;;2272146;61;698;-87
2021/10/17 04:13:36;491883.00;1.64;847.85;0.00;0.00;0.62;;;;;17.10;1.00;;;;;;2272025;61;1659;-88
2021/10/17 04:16:06;515818.00;1.72;889.06;0.00;0.00;0.62;;;;;17.20;1.00;;;;;;2271544;61;1651;-88
2021/10/17 04:18:42;288573.00;0.96;498.28;0.00;0.00;0.62;;;;;17.20;1.00;;;;;;2271931;61;1704;-89
2021/10/17 04:21:10;317478.00;1.06;547.96;0.00;0.00;0.62;;;;;17.20;1.00;;;;;;2272021;61;1648;-88
2021/10/17 04:23:50;581751.00;1.94;1002.72;0.00;0.00;0.62;;;;;17.30;1.00;;;;;;2271888;61;2010;-87
2021/10/17 04:26:30;351568.00;1.17;606.56;0.00;0.00;0.62;;;;;17.40;1.00;;;;;;2272483;61;1347;-88
2021/10/17 04:29:17;513201.00;1.71;884.55;87926.00;0.29;152.73;;;;;17.40;1.00;;;;;;2272716;61;1368;-87
2021/10/17 04:31:46;255176.00;0.85;440.85;0.00;0.00;0.62;;;;;17.30;1.00;;;;;;2272709;61;1696;-87
2021/10/17 04:34:40;332200.00;1.11;573.27;0.00;0.00;0.62;;;;;17.20;1.00;;;;;;2272696;61;1008;-87
2021/10/17 04:37:08;502900.00;1.68;866.82;0.00;0.00;0.62;;;;;17.30;1.00;;;;;;2272714;61;1248;-87
2021/10/17 04:39:36;573102.00;1.91;987.80;0.00;0.00;0.62;;;;;17.30;1.00;;;;;;2272615;61;1333;-87
2021/10/17 04:42:10;296055.00;0.99;511.14;0.00;0.00;0.62;;;;;17.30;1.00;;;;;;2272607;61;1555;-87
2021/10/17 04:44:48;425737.00;1.42;734.05;0.00;0.00;0.62;;;;;17.30;1.00;;;;;;2272648;61;2017;-88
2021/10/17 04:47:21;476374.00;1.59;821.16;0.00;0.00;0.62;;;;;17.40;1.00;;;;;;2272735;61;910;-87
2021/10/17 04:50:08;606312.00;2.02;1045.12;0.00;0.00;0.62;;;;;17.40;1.00;;;;;;2272544;61;1586;-87
2021/10/17 04:52:42;929348.00;3.10;1607.72;143362.00;0.48;248.37;;;;;17.20;1.00;;;;;;2272652;61;906;-88
2021/10/17 04:55:13;343908.00;1.15;593.39;0.00;0.00;0.62;;;;;17.20;1.00;;;;;;2272498;61;1612;-87
2021/10/17 04:57:41;417620.00;1.39;720.10;0.00;0.00;0.62;;;;;17.30;1.00;;;;;;2272592;61;1392;-89
2021/10/17 05:00:15;640716.00;2.14;1104.58;1337.00;0.00;2.94;;;;;17.30;1.00;;;;;;2272549;61;1587;-88
2021/10/17 05:02:44;621056.00;2.07;1070.59;90574.00;0.30;157.30;;;;;17.40;1.00;;;;;;2272539;61;1985;-87
2021/10/17 05:05:17;372982.00;1.24;643.36;0.00;0.00;0.62;;;;;17.20;1.00;;;;;;2272468;61;1569;-87
2021/10/17 05:07:55;485633.00;1.62;837.09;0.00;0.00;0.62;;;;;16.90;1.00;;;;;;2272480;61;1760;-88
2021/10/17 05:10:37;650509.00;2.17;1121.52;0.00;0.00;0.62;;;;;16.60;1.00;;;;;;2276298;61;988;-87
2021/10/17 05:13:15;636563.00;2.12;1097.40;0.00;0.00;0.62;;;;;16.20;1.00;;;;;;2276566;61;976;-88
2021/10/17 05:15:44;397983.00;1.33;686.34;0.00;0.00;0.62;;;;;15.90;1.00;;;;;;2276538;61;1215;-87
2021/10/17 05:18:30;569301.00;1.90;981.24;0.00;0.00;0.62;;;;;15.90;1.00;;;;;;2276560;61;1355;-87
2021/10/17 05:21:01;358445.00;1.19;618.38;0.00;0.00;0.62;;;;;15.90;1.00;;;;;;2276640;61;924;-88
2021/10/17 05:23:32;686166.00;2.29;1183.26;0.00;0.00;0.62;;;;;16.00;1.00;;;;;;2276509;61;1919;-87
2021/10/17 05:26:05;603316.00;2.01;1039.95;84383.00;0.28;146.61;;;;;16.30;1.00;;;;;;2276463;61;1652;-87
2021/10/17 05:28:33;443999.00;1.48;765.46;0.00;0.00;0.62;;;;;16.50;1.00;;;;;;2276460;61;1385;-87
2021/10/17 05:31:03;584346.00;1.95;1007.20;0.00;0.00;0.62;;;;;16.50;1.00;;;;;;2276451;61;1559;-88
2021/10/17 05:33:40;467042.00;1.56;805.10;0.00;0.00;0.62;;;;;16.60;1.00;;;;;;2276398;61;1164;-88
2021/10/17 05:36:09;618298.00;2.06;1065.83;85398.00;0.28;148.36;;;;;16.70;1.00;;;;;;2276456;61;1046;-88
2021/10/17 05:38:36;195744.00;0.65;338.60;0.00;0.00;0.62;;;;;16.80;1.00;;;;;;2276235;61;1688;-88
2021/10/17 05:41:10;528021.00;1.76;910.08;0.00;0.00;0.62;;;;;16.80;1.00;;;;;;2276533;61;1124;-87
2021/10/17 05:43:38;689491.00;2.30;1189.02;0.00;0.00;0.62;;;;;16.00;1.00;;;;;;2276523;61;1994;-87
2021/10/17 05:46:07;413562.00;1.38;713.12;0.00;0.00;0.62;;;;;15.50;1.00;;;;;;2276375;61;1805;-88
2021/10/17 05:48:37;691422.00;2.30;1192.37;0.00;0.00;0.62;;;;;15.10;1.00;;;;;;2276373;61;1786;-88
2021/10/17 05:51:04;697083.00;2.32;1202.18;0.00;0.00;0.62;;;;;15.30;1.00;;;;;;2276507;61;1225;-89
2021/10/17 05:53:33;516114.00;1.72;889.57;0.00;0.00;0.62;;;;;15.30;1.00;;;;;;2276318;61;1059;-88
2021/10/17 05:56:14;634382.00;2.11;1093.62;0.00;0.00;0.62;;;;;15.20;1.00;;;;;;2276227;61;1613;-88
2021/10/17 05:58:46;132187960.00;440.63;93594592.00;0.00;0.00;0.62;;;;;15.40;1.00;;;;;;2276346;61;1412;-88
2021/10/17 06:01:17;443914.00;1.48;765.31;0.00;0.00;0.62;;;;;15.80;1.00;;;;;;2276243;61;1821;-87
2021/10/17 06:03:44;981775.00;3.27;1700.22;73864.00;0.25;128.44;;;;;16.00;1.00;;;;;;2276153;61;1993;-88
2021/10/17 06:06:13;525875.00;1.75;906.39;90070.00;0.30;156.43;;;;;15.90;1.00;;;;;;2275993;61;1126;-87
2021/10/17 06:08:43;338895.00;1.13;584.77;0.00;0.00;0.62;;;;;15.70;1.00;;;;;;2276119;61;1278;-88
2021/10/17 06:11:11;758003.00;2.53;1307.98;738.00;0.00;1.90;;;;;15.50;1.00;;;;;;2276189;61;960;-89
2021/10/17 06:13:38;373992.00;1.25;645.10;0.00;0.00;0.62;;;;;15.40;1.00;;;;;;2276020;61;1765;-88
2021/10/17 06:16:08;468216.00;1.56;807.12;0.00;0.00;0.62;;;;;15.50;1.00;;;;;;2276314;61;972;-88
2021/10/17 06:18:48;876427.00;2.92;1514.76;32771.00;0.11;57.38;;;;;15.50;1.00;;;;;;2276120;61;1392;-88
2021/10/17 06:22:02;647252.00;2.16;1115.88;86431.00;0.29;150.14;;;;;14.40;1.00;;;;;;2276001;61;1658;-89
2021/10/17 06:25:03;748645.00;2.50;1291.70;77853.00;0.26;135.33;;;;;14.20;1.00;;;;;;2275790;61;2014;-88
2021/10/17 06:28:02;;;;;;;;;;;;;;;;;;;;;
2021/10/17 06:46:04;807476.00;2.69;1394.17;25796.00;0.09;45.31;;;;;15.10;1.00;;;;;;2262876;61;1416;-88
2021/10/17 07:02:39;545220.00;1.82;939.72;18200.00;0.06;32.15;;;;;15.70;1.00;;;;;;2247204;61;1049;-87
2021/10/17 07:33:31;570111.00;1.90;982.64;0.00;0.00;0.62;;;;;15.80;1.00;;;;;;2202998;62;1456;-87
2021/10/17 08:42:00;852310.00;2.84;1472.51;0.00;0.00;0.62;;;;;14.80;1.00;;;;;;2295638;45;1374;-87
2021/10/17 08:44:42;;;;;;;;;;;;;;;;;;;;;
2021/10/17 08:47:32;;;;;;;;;;;;;;;;;;;;;
2021/10/17 08:50:04;518336.00;1.73;893.40;1325.00;0.00;2.92;;;;;16.20;1.00;;;;;;2283548;60;1191;-86
2021/10/17 08:52:36;844848.00;2.82;1459.45;0.00;0.00;0.62;;;;;16.00;1.00;;;;;;2283429;60;937;-87
2021/10/17 08:55:07;302209.00;1.01;521.72;0.00;0.00;0.62;;;;;16.70;1.00;;;;;;2283381;60;923;-88
2021/10/17 08:57:38;629533.00;2.10;1085.24;0.00;0.00;0.62;;;;;16.90;1.00;;;;;;2283499;60;1718;-88
2021/10/17 09:00:31;697880.00;2.33;1203.56;0.00;0.00;0.62;;;;;16.60;1.00;;;;;;2283423;60;1923;-88
2021/10/17 09:03:07;516971.00;1.72;891.05;79521.00;0.27;138.21;;;;;16.60;1.00;;;;;;2283273;60;1680;-87
2021/10/17 09:52:41;99200.00;0.33;172.19;0.00;0.00;0.62;;;;;16.60;1.00;;;;;;2284171;61;904;-85
2021/10/17 10:30:13;98235.00;0.33;170.53;0.00;0.00;0.62;;;;;17.20;1.00;;;;;;2432440;55;3776;31
2021/10/17 10:49:58;52618.00;0.18;91.71;0.00;0.00;0.62;;;;;18.70;1.00;;;;;;2283790;61;1301;-86
2021/10/17 11:17:12;27514.00;0.09;48.28;0.00;0.00;0.62;;;;;18.60;1.00;;;;;;2283617;61;951;-84
2021/10/17 11:19:41;72846.00;0.24;126.68;0.00;0.00;0.62;;;;;18.60;1.00;;;;;;2272990;61;1986;-87
2021/10/17 11:22:21;0.00;0.00;0.62;0.00;0.00;0.62;;;;;19.10;1.00;;;;;;2273072;61;824;-88
2021/10/17 11:24:51;517676.00;1.73;892.26;42578.00;0.14;74.35;;;;;18.80;1.00;;;;;;2273082;61;1226;-88
2021/10/17 11:27:18;264382.00;0.88;456.68;34201.00;0.11;59.85;;;;;18.20;1.00;;;;;;2269610;61;972;-88
2021/10/17 11:29:49;90540.00;0.30;157.24;0.00;0.00;0.62;;;;;17.60;1.00;;;;;;2266264;61;930;-88
2021/10/17 11:32:20;333538.00;1.11;575.57;30753.00;0.10;53.89;;;;;17.30;1.00;;;;;;2266302;61;922;-86
2021/10/17 11:37:22;303762.00;1.01;524.39;2002.00;0.01;4.09;;;;;18.00;1.00;;;;;;2279351;61;1306;-86
2021/10/17 12:07:05;103112.00;0.34;178.94;0.00;0.00;0.62;;;;;18.90;1.00;;;;;;2278862;61;1030;-87
2021/10/17 12:16:58;243637.00;0.81;421.01;0.00;0.00;0.62;;;;;19.20;1.00;;;;;;2274755;61;1311;-86
2021/10/17 14:30:50;275546.00;0.92;475.88;82630.00;0.28;143.58;;;;;16.10;1.00;;;;;;2279249;61;1307;-86
2021/10/17 14:50:44;466542.00;1.56;804.24;104704.00;0.35;181.69;;;;;15.40;1.00;;;;;;2470859;40;3675;31
2021/10/17 15:20:29;528693.00;1.76;911.24;69400.00;0.23;120.72;;;;;13.90;1.00;;;;;;2511503;39;3716;31
2021/10/17 15:45:20;1127215.00;3.76;1959.16;119699.00;0.40;207.56;;;;;12.70;3.30;;;;;;2280898;61;1355;-87
2021/10/17 15:47:47;579549.00;1.93;998.92;85620.00;0.29;148.74;;;;;12.60;3.60;;;;;;2279223;61;1182;-86
2021/10/17 15:50:14;389035.00;1.30;670.96;85236.00;0.28;148.08;;;;;12.50;3.90;;;;;;2267104;61;1020;-87
2021/10/17 15:52:41;434461.00;1.45;749.06;0.00;0.00;0.62;;;;;12.70;3.40;;;;;;2266748;61;1344;-87
2021/10/17 15:55:09;300977.00;1.00;519.60;0.00;0.00;0.62;;;;;12.90;2.60;;;;;;2267022;61;934;-86
2021/10/17 15:57:36;261541.00;0.87;451.80;0.00;0.00;0.62;;;;;13.20;1.20;;;;;;2267242;61;1088;-86
2021/10/17 16:00:03;480340.00;1.60;827.98;39242.00;0.13;68.58;;;;;13.20;1.20;;;;;;2257217;61;1919;-87
2021/10/17 16:02:32;442345.00;1.47;762.62;19446.00;0.06;34.31;;;;;13.20;1.20;;;;;;2260408;61;1392;-88
2021/10/17 16:05:00;274921.00;0.92;474.81;0.00;0.00;0.62;;;;;13.20;1.20;;;;;;2266985;61;1786;-87
2021/10/17 16:07:27;357097.00;1.19;616.06;11617.00;0.04;20.75;;;;;13.10;1.10;;;;;;2267301;61;1174;-87
2021/10/17 16:09:53;774416.00;2.58;1336.54;0.00;0.00;0.62;;;;;12.80;2.40;;;;;;2267237;61;1191;-87
2021/10/17 16:12:20;920451.00;3.07;1592.07;38485.00;0.13;67.27;;;;;12.60;3.10;;;;;;2260656;61;1074;-88
2021/10/17 16:14:47;117850856.00;392.84;66302704.00;104000.00;0.35;180.48;;;;;12.90;2.70;;;;;;2260680;61;1396;-88
2021/10/17 16:17:14;471641.00;1.57;813.01;89170.00;0.30;154.87;;;;;13.20;1.20;;;;;;2267517;61;1036;-88
2021/10/17 16:19:43;342349.00;1.14;590.71;0.00;0.00;0.62;;;;;13.40;1.00;;;;;;2260560;61;1109;-88
2021/10/17 16:22:10;556264.00;1.85;958.76;0.00;0.00;0.62;;;;;13.20;1.20;;;;;;2267347;61;2017;-87
2021/10/17 16:24:38;344317.00;1.15;594.09;0.00;0.00;0.62;;;;;12.90;1.00;;;;;;2267453;61;1303;-88
2021/10/17 16:27:06;593802.00;1.98;1023.52;17465.00;0.06;30.88;;;;;12.90;2.50;;;;;;2268409;61;1072;-89
2021/10/17 16:29:33;1144577.00;3.82;1990.33;32978.00;0.11;57.74;;;;;13.00;1.10;;;;;;2271539;61;998;-89
2021/10/17 16:32:00;718212.00;2.39;1238.83;29168.00;0.10;51.14;;;;;13.00;1.10;;;;;;2271740;61;1026;-88
2021/10/17 16:34:27;794722.00;2.65;1371.92;99840.00;0.33;173.30;;;;;13.20;1.00;;;;;;2268174;61;1352;-89
2021/10/17 16:36:56;505268.00;1.68;870.89;55547.00;0.19;96.78;;;;;13.40;1.00;;;;;;2271562;61;1006;-88
2021/10/17 16:39:23;494189.00;1.65;851.82;9926.00;0.03;17.82;;;;;13.30;1.00;;;;;;2268039;61;1025;-88
2021/10/17 16:41:50;432852.00;1.44;746.29;0.00;0.00;0.62;;;;;13.70;1.00;;;;;;2271383;61;1930;-89
2021/10/17 16:44:17;373834.00;1.25;644.83;11759.00;0.04;21.00;;;;;13.60;1.00;;;;;;2271412;61;1359;-88
2021/10/17 16:46:44;750548.00;2.50;1295.01;83232.00;0.28;144.62;;;;;13.50;1.00;;;;;;2267884;61;1062;-88
2021/10/17 16:49:11;1048885.00;3.50;1819.25;46996.00;0.16;81.99;;;;;13.50;1.00;;;;;;2271460;61;1012;-88
2021/10/17 16:51:39;351959.00;1.17;607.23;0.00;0.00;0.62;;;;;13.50;1.20;;;;;;2264606;61;1092;-89
2021/10/17 16:54:07;569789.00;1.90;982.08;112278.00;0.37;194.76;;;;;13.10;1.30;;;;;;2271451;61;1391;-88
2021/10/17 16:56:35;455799.00;1.52;785.76;0.00;0.00;0.62;;;;;13.10;1.10;;;;;;2267822;61;1038;-88
2021/10/17 16:59:02;397809.00;1.33;686.04;11764.00;0.04;21.01;;;;;13.30;1.10;;;;;;2271636;61;1026;-90
2021/10/17 17:01:30;374859.00;1.25;646.59;0.00;0.00;0.62;;;;;13.20;1.00;;;;;;2268097;61;1914;-89
2021/10/17 17:09:07;510867.00;1.70;880.54;56756.00;0.19;98.87;;;;;13.20;1.00;;;;;;2274937;61;1355;-88
2021/10/17 17:11:34;987005.00;3.29;1709.47;48734.00;0.16;85.00;;;;;13.60;1.00;;;;;;2265556;61;1007;-88
2021/10/17 17:16:29;566536.00;1.89;976.47;86477.00;0.29;150.22;;;;;13.90;1.00;;;;;;2278757;61;1724;-89
2021/10/17 17:18:56;293905.00;0.98;507.44;0.00;0.00;0.62;;;;;13.80;1.00;;;;;;2264119;61;1044;-89
2021/10/17 17:21:23;445727.00;1.49;768.43;0.00;0.00;0.62;;;;;13.90;1.00;;;;;;2264141;61;2006;-89
2021/10/17 17:23:50;285566.00;0.95;493.11;0.00;0.00;0.62;;;;;14.10;1.00;;;;;;2253451;61;1424;-90
2021/10/17 17:26:18;1023626.00;3.41;1774.36;98357.00;0.33;170.74;;;;;14.10;1.00;;;;;;2244110;62;1056;-90
2021/10/17 17:28:46;898782.00;3.00;1553.98;18450.00;0.06;32.59;;;;;14.10;1.00;;;;;;2244013;61;1034;-90
2021/10/17 17:31:13;679867.00;2.27;1172.34;16330.00;0.05;28.91;;;;;14.00;1.00;;;;;;2235727;62;1028;-88
2021/10/17 17:33:40;586440.00;1.95;1010.81;75901.00;0.25;131.96;;;;;13.50;1.00;;;;;;2232821;62;1319;-88
2021/10/17 17:36:07;476506.00;1.59;821.38;91218.00;0.30;158.41;;;;;13.20;1.20;;;;;;2236491;62;1076;-87
2021/10/17 17:38:34;618213.00;2.06;1065.68;14444.00;0.05;25.65;;;;;13.00;1.60;;;;;;2240024;62;1042;-87
2021/10/17 17:41:01;415273.00;1.38;716.06;13695.00;0.05;24.35;;;;;13.20;1.20;;;;;;2240946;61;1998;-88
2021/10/17 17:43:29;250738.00;0.84;433.22;0.00;0.00;0.62;;;;;13.50;1.00;;;;;;2243996;61;1324;-88
2021/10/17 17:45:56;1235705.00;4.12;2154.91;58206.00;0.19;101.38;;;;;13.00;1.00;;;;;;2241516;61;1080;-89
2021/10/17 17:48:23;1187728.00;3.96;2068.05;82142.00;0.27;142.74;;;;;12.60;2.20;;;;;;2252287;61;1027;-88
2021/10/17 17:50:50;602248.00;2.01;1038.10;51590.00;0.17;89.94;;;;;12.80;1.90;;;;;;2247909;61;1065;-88
2021/10/17 17:53:17;1212727.00;4.04;2113.25;114207.00;0.38;198.09;;;;;13.30;1.00;;;;;;2247875;61;1370;-89
2021/10/17 17:55:45;358765.00;1.20;618.93;0.00;0.00;0.62;;;;;13.50;1.00;;;;;;2248885;61;1119;-89
2021/10/17 17:58:12;380499.00;1.27;656.28;0.00;0.00;0.62;;;;;13.20;1.00;;;;;;2256050;61;995;-89
2021/10/17 18:00:40;348334.00;1.16;601.00;0.00;0.00;0.62;;;;;13.20;1.20;;;;;;2253535;61;1931;-88
2021/10/17 18:03:07;475762.00;1.59;820.10;6816.00;0.02;12.43;;;;;13.40;1.00;;;;;;2263889;61;1375;-89
2021/10/17 18:05:34;599815.00;2.00;1033.90;34033.00;0.11;59.56;;;;;13.60;1.00;;;;;;2260466;61;1018;-89
2021/10/17 18:08:01;1458459.00;4.86;2565.19;64096.00;0.21;111.56;;;;;13.70;1.00;;;;;;2261520;61;1000;-89
2021/10/17 18:10:28;833985.00;2.78;1440.46;21941.00;0.07;38.63;;;;;13.70;1.00;;;;;;2265196;61;1065;-88
2021/10/17 18:12:56;822409.00;2.74;1420.23;86479.00;0.29;150.23;;;;;13.60;1.00;;;;;;2265189;61;1305;-89
2021/10/17 18:15:23;473715.00;1.58;816.58;0.00;0.00;0.62;;;;;13.70;1.00;;;;;;2265251;61;1043;-89
2021/10/17 18:17:52;374657.00;1.25;646.24;0.00;0.00;0.62;;;;;13.60;1.00;;;;;;2264585;61;1034;-87
2021/10/17 18:20:21;534174.00;1.78;920.68;29822.00;0.10;52.27;;;;;13.60;1.00;;;;;;2271017;61;991;-90
2021/10/17 18:22:50;428646.00;1.43;739.06;15802.00;0.05;28.00;;;;;13.70;1.00;;;;;;2263755;61;2010;-88
2021/10/17 18:25:17;706854.00;2.36;1219.13;28371.00;0.09;49.76;;;;;14.10;1.00;;;;;;2263857;61;996;-89
2021/10/17 18:27:44;821018.00;2.74;1417.80;50330.00;0.17;87.76;;;;;13.70;1.00;;;;;;2263973;61;1020;-90
2021/10/17 18:30:12;1065925.00;3.55;1849.59;32466.00;0.11;56.85;;;;;13.70;1.00;;;;;;2263882;61;941;-89
2021/10/17 18:32:39;946468.00;3.15;1637.88;103134.00;0.34;178.98;;;;;13.80;1.00;;;;;;2257199;61;1415;-88